createdAt,value
2022-09-14T00:01:26.538Z,84.95
2022-09-14T00:04:15.612Z,84.86
2022-09-14T00:06:42.911Z,84.10
2022-09-14T00:09:18.558Z,84.17
2022-09-14T00:11:46.298Z,84.10
2022-09-14T00:14:16.075Z,83.73
2022-09-14T00:16:43.713Z,83.71
2022-09-14T00:19:19.554Z,83.76
2022-09-14T00:21:49.882Z,83.66
2022-09-14T00:24:16.622Z,83.76
2022-09-14T00:26:43.388Z,84.04
2022-09-14T00:29:11.405Z,83.80
2022-09-14T00:31:39.934Z,83.84
2022-09-14T00:34:09.360Z,84.08
2022-09-14T00:36:42.910Z,84.31
2022-09-14T00:39:09.643Z,84.27
2022-09-14T00:41:39.835Z,84.48
2022-09-14T00:44:12.960Z,84.56
2022-09-14T00:46:52.206Z,84.41
2022-09-14T00:49:26.806Z,84.55
2022-09-14T00:52:17.493Z,84.66
2022-09-14T00:54:56.847Z,84.82
2022-09-14T00:57:26.407Z,84.95
2022-09-14T00:59:54.667Z,85.04
2022-09-14T01:02:24.617Z,85.17
2022-09-14T01:04:52.708Z,85.04
2022-09-14T01:07:26.266Z,85.12
2022-09-14T01:10:00.394Z,85.22
2022-09-14T01:12:39.670Z,85.34
2022-09-14T01:15:17.266Z,85.33
2022-09-14T01:17:52.919Z,85.37
2022-09-14T01:20:28.189Z,85.55
2022-09-14T01:23:18.293Z,85.70
2022-09-14T01:25:47.634Z,86.03
2022-09-14T01:28:41.252Z,86.03
2022-09-14T01:31:25.631Z,86.02
2022-09-14T01:34:00.695Z,86.19
2022-09-14T01:36:29.323Z,86.11
2022-09-14T01:38:57.261Z,85.92
2022-09-14T01:41:30.473Z,86.28
2022-09-14T01:44:04.479Z,86.36
2022-09-14T01:46:40.113Z,86.17
2022-09-14T01:49:37.786Z,86.03
2022-09-14T01:52:18.442Z,86.33
2022-09-14T01:55:04.555Z,86.42
2022-09-14T01:57:38.145Z,86.63
2022-09-14T02:00:10.533Z,86.82
2022-09-14T02:02:47.027Z,87.02
2022-09-14T02:05:19.816Z,87.24
2022-09-14T02:07:47.127Z,87.54
2022-09-14T02:10:17.655Z,87.72
2022-09-14T02:12:45.183Z,87.68
2022-09-14T02:15:15.248Z,87.94
2022-09-14T02:17:42.977Z,87.98
2022-09-14T02:20:21.813Z,88.27
2022-09-14T02:22:50.447Z,88.30
2022-09-14T02:25:17.685Z,88.47
2022-09-14T02:27:44.427Z,88.38
2022-09-14T02:30:13.075Z,88.43
2022-09-14T02:32:59.989Z,88.51
2022-09-14T02:35:36.248Z,88.61
2022-09-14T02:38:16.035Z,88.70
2022-09-14T02:40:58.447Z,88.59
2022-09-14T02:43:38.863Z,88.71
2022-09-14T02:46:18.305Z,88.91
2022-09-14T02:49:01.071Z,88.94
2022-09-14T02:51:38.317Z,88.66
2022-09-14T02:54:13.592Z,88.85
2022-09-14T02:56:40.435Z,88.65
2022-09-14T02:59:07.267Z,88.84
2022-09-14T03:01:34.689Z,88.96
2022-09-14T03:04:01.742Z,88.99
2022-09-14T03:06:28.874Z,89.28
2022-09-14T03:08:55.659Z,89.00
2022-09-14T03:11:22.511Z,89.17
2022-09-14T03:13:49.553Z,89.13
2022-09-14T03:16:18.678Z,89.01
2022-09-14T03:18:45.567Z,89.08
2022-09-14T03:21:15.254Z,89.20
2022-09-14T03:23:48.291Z,89.24
2022-09-14T03:26:17.543Z,89.35
2022-09-14T03:28:45.333Z,89.19
2022-09-14T03:31:13.581Z,89.07
2022-09-14T03:33:40.670Z,88.92
2022-09-14T03:36:12.536Z,89.04
2022-09-14T03:38:42.403Z,89.28
2022-09-14T03:41:10.393Z,89.30
2022-09-14T03:43:37.459Z,89.56
2022-09-14T03:46:24.529Z,89.52
2022-09-14T03:48:52.256Z,89.19
2022-09-14T03:51:18.984Z,89.05
2022-09-14T03:53:45.945Z,88.83
2022-09-14T03:56:22.268Z,89.05
2022-09-14T03:58:49.954Z,89.02
2022-09-14T04:01:19.936Z,88.97
2022-09-14T04:03:47.454Z,88.92
2022-09-14T04:06:16.200Z,88.94
2022-09-14T04:08:44.826Z,88.99
2022-09-14T04:11:18.060Z,88.94
2022-09-14T04:13:45.888Z,88.94
2022-09-14T04:16:13.328Z,88.82
2022-09-14T04:18:40.292Z,88.53
2022-09-14T04:21:13.676Z,88.61
2022-09-14T04:23:57.028Z,88.62
2022-09-14T04:26:29.548Z,88.65
2022-09-14T04:28:57.628Z,88.70
2022-09-14T04:31:25.622Z,88.78
2022-09-14T04:33:56.618Z,88.66
2022-09-14T04:36:28.682Z,88.69
2022-09-14T04:38:57.880Z,88.69
2022-09-14T04:41:25.726Z,88.67
2022-09-14T04:43:54.649Z,88.35
2022-09-14T04:46:35.205Z,88.56
2022-09-14T04:49:02.020Z,88.30
2022-09-14T04:51:31.113Z,88.22
2022-09-14T04:53:59.660Z,88.15
2022-09-14T04:56:28.078Z,88.23
2022-09-14T04:58:58.778Z,88.21
2022-09-14T05:01:32.008Z,88.18
2022-09-14T05:03:59.391Z,88.06
2022-09-14T05:06:29.233Z,87.97
2022-09-14T05:08:56.935Z,88.11
2022-09-14T05:11:26.368Z,87.88
2022-09-14T05:13:53.492Z,87.69
2022-09-14T05:16:32.746Z,87.50
2022-09-14T05:19:08.274Z,87.43
2022-09-14T05:21:37.458Z,87.40
2022-09-14T05:24:08.261Z,87.28
2022-09-14T05:26:35.046Z,87.29
2022-09-14T05:29:03.404Z,87.22
2022-09-14T05:31:32.142Z,87.13
2022-09-14T05:33:59.464Z,87.02
2022-09-14T05:36:26.401Z,87.06
2022-09-14T05:38:54.017Z,87.28
2022-09-14T05:41:21.243Z,87.28
2022-09-14T05:43:48.633Z,86.89
2022-09-14T05:46:22.488Z,87.02
2022-09-14T05:48:51.881Z,86.94
2022-09-14T05:51:25.392Z,86.88
2022-09-14T05:53:54.579Z,86.97
2022-09-14T05:56:23.171Z,87.02
2022-09-14T05:58:50.893Z,87.15
2022-09-14T06:01:22.547Z,87.35
2022-09-14T06:03:50.542Z,87.37
2022-09-14T06:06:19.510Z,87.22
2022-09-14T06:08:50.275Z,87.33
2022-09-14T06:11:19.776Z,87.26
2022-09-14T06:13:50.029Z,87.36
2022-09-14T06:16:21.840Z,87.56
2022-09-14T06:18:49.807Z,87.38
2022-09-14T06:21:20.074Z,87.52
2022-09-14T06:23:48.354Z,87.69
2022-09-14T06:26:15.511Z,87.72
2022-09-14T06:28:43.105Z,87.68
2022-09-14T06:31:13.426Z,87.91
2022-09-14T06:33:48.135Z,87.53
2022-09-14T06:36:19.741Z,87.49
2022-09-14T06:38:49.879Z,87.63
2022-09-14T06:41:20.827Z,87.45
2022-09-14T06:43:49.568Z,87.55
2022-09-14T06:46:23.725Z,87.65
2022-09-14T06:48:55.725Z,87.57
2022-09-14T06:51:32.709Z,87.40
2022-09-14T06:54:00.966Z,87.05
2022-09-14T06:56:31.524Z,86.73
2022-09-14T06:58:59.378Z,86.75
2022-09-14T07:01:26.937Z,86.85
2022-09-14T07:03:54.658Z,86.55
2022-09-14T07:06:24.452Z,86.22
2022-09-14T07:08:52.677Z,86.06
2022-09-14T07:11:22.471Z,86.12
2022-09-14T07:13:49.254Z,85.84
2022-09-14T07:16:16.192Z,85.46
2022-09-14T07:18:44.748Z,85.30
2022-09-14T07:21:15.991Z,85.16
2022-09-14T07:23:44.568Z,85.18
2022-09-14T07:26:12.567Z,85.38
2022-09-14T07:28:40.331Z,85.36
2022-09-14T07:31:15.452Z,85.08
2022-09-14T07:33:42.844Z,84.68
2022-09-14T07:36:11.517Z,84.44
2022-09-14T07:38:52.207Z,84.34
2022-09-14T07:41:22.796Z,84.37
2022-09-14T07:43:51.375Z,83.90
2022-09-14T07:46:19.467Z,83.58
2022-09-14T07:48:46.590Z,83.09
2022-09-14T07:51:14.482Z,82.87
2022-09-14T07:53:43.933Z,82.26
2022-09-14T07:56:12.368Z,81.72
2022-09-14T07:58:40.041Z,81.24
2022-09-14T08:01:09.317Z,80.23
2022-09-14T08:03:36.508Z,80.07
2022-09-14T08:06:15.402Z,79.66
2022-09-14T08:08:44.645Z,78.86
2022-09-14T08:11:17.526Z,79.11
2022-09-14T08:13:47.043Z,79.19
2022-09-14T08:16:14.355Z,78.45
2022-09-14T08:18:41.720Z,78.19
2022-09-14T08:21:14.712Z,77.82
2022-09-14T08:23:44.162Z,77.66
2022-09-14T08:26:13.905Z,77.38
2022-09-14T08:28:42.749Z,77.65
2022-09-14T08:31:12.223Z,77.06
2022-09-14T08:33:44.882Z,76.19
2022-09-14T08:36:14.094Z,75.14
2022-09-14T08:38:40.747Z,74.89
2022-09-14T08:41:33.007Z,73.95
2022-09-14T08:44:18.457Z,74.15
2022-09-14T08:47:02.446Z,73.44
2022-09-14T08:49:57.115Z,72.37
2022-09-14T08:52:47.782Z,72.03
2022-09-14T08:55:20.689Z,71.64
2022-09-14T08:57:54.044Z,71.51
2022-09-14T09:00:36.218Z,71.16
2022-09-14T09:03:40.497Z,70.49
2022-09-14T09:06:26.581Z,70.23
2022-09-14T09:09:33.694Z,69.45
2022-09-14T09:12:01.182Z,70.24
2022-09-14T09:14:39.405Z,70.53
2022-09-14T09:17:18.811Z,70.21
2022-09-14T09:19:57.233Z,70.14
2022-09-14T09:22:28.127Z,70.38
2022-09-14T09:24:55.871Z,70.57
2022-09-14T09:27:24.875Z,69.75
2022-09-14T09:29:51.757Z,69.92
2022-09-14T09:32:23.446Z,70.20
2022-09-14T09:35:15.582Z,70.34
2022-09-14T09:37:49.742Z,70.77
2022-09-14T09:40:29.110Z,70.97
2022-09-14T09:43:21.184Z,70.47
2022-09-14T09:46:01.582Z,69.97
2022-09-14T09:48:48.946Z,70.05
2022-09-14T09:51:30.510Z,69.60
2022-09-14T09:54:06.056Z,69.65
2022-09-14T09:56:36.698Z,69.42
2022-09-14T09:59:21.099Z,68.70
2022-09-14T10:01:48.367Z,67.93
2022-09-14T10:04:25.036Z,67.24
2022-09-14T10:06:57.666Z,67.13
2022-09-14T10:09:29.836Z,66.84
2022-09-14T10:12:02.324Z,66.80
2022-09-14T10:14:28.975Z,65.70
2022-09-14T10:17:06.506Z,64.71
2022-09-14T10:19:34.027Z,64.04
2022-09-14T10:22:26.641Z,63.84
2022-09-14T10:25:03.273Z,63.25
2022-09-14T10:27:43.251Z,62.45
2022-09-14T10:30:16.125Z,62.16
2022-09-14T10:33:02.324Z,60.52
2022-09-14T10:35:37.716Z,60.38
2022-09-14T10:38:37.720Z,60.51
2022-09-14T10:41:14.034Z,60.87
2022-09-14T10:43:56.697Z,61.56
2022-09-14T10:46:31.919Z,62.00
2022-09-14T10:49:15.017Z,62.54
2022-09-14T10:51:58.766Z,62.86
2022-09-14T10:54:44.374Z,63.29
2022-09-14T10:57:45.593Z,63.30
2022-09-14T11:00:22.564Z,63.51
2022-09-14T11:03:04.242Z,63.25
2022-09-14T11:05:38.550Z,63.10
2022-09-14T11:08:24.873Z,62.92
2022-09-14T11:11:13.539Z,62.37
2022-09-14T11:14:06.438Z,62.16
2022-09-14T11:16:48.172Z,61.97
2022-09-14T11:19:47.072Z,61.87
2022-09-14T11:22:33.944Z,61.67
2022-09-14T11:25:12.499Z,60.61
2022-09-14T11:27:53.575Z,61.11
2022-09-14T11:30:23.414Z,60.66
2022-09-14T11:33:08.031Z,60.15
2022-09-14T11:35:43.669Z,58.77
2022-09-14T11:38:20.435Z,57.61
2022-09-14T11:41:21.638Z,56.90
2022-09-14T11:44:16.605Z,55.82
2022-09-14T11:46:59.996Z,54.37
2022-09-14T11:49:30.772Z,53.15
2022-09-14T11:52:08.407Z,52.20
2022-09-14T11:54:42.433Z,51.96
2022-09-14T11:57:18.362Z,51.82
2022-09-14T11:59:51.205Z,51.40
2022-09-14T12:02:23.924Z,51.37
2022-09-14T12:05:06.150Z,51.40
2022-09-14T12:07:50.390Z,50.79
2022-09-14T12:10:22.537Z,50.98
2022-09-14T12:13:07.404Z,50.73
2022-09-14T12:15:38.228Z,49.72
2022-09-14T12:18:08.031Z,49.67
2022-09-14T12:20:37.836Z,50.15
2022-09-14T12:23:24.994Z,50.48
2022-09-14T12:26:11.606Z,51.03
2022-09-14T12:28:48.669Z,50.30
2022-09-14T12:31:48.137Z,49.90
2022-09-14T12:34:21.142Z,49.71
2022-09-14T12:36:47.757Z,49.19
2022-09-14T12:39:21.463Z,49.62
2022-09-14T12:41:48.065Z,50.04
2022-09-14T12:44:40.565Z,49.83
2022-09-14T12:47:25.665Z,48.33
2022-09-14T12:49:57.895Z,48.29
2022-09-14T12:52:33.853Z,48.60
2022-09-14T12:55:41.145Z,48.15
2022-09-14T12:58:43.368Z,47.06
2022-09-14T13:01:28.186Z,46.60
2022-09-14T13:03:58.602Z,46.21
2022-09-14T13:06:41.212Z,46.13
2022-09-14T13:09:21.270Z,45.92
2022-09-14T13:12:02.495Z,45.29
2022-09-14T13:14:33.790Z,45.10
2022-09-14T13:17:03.573Z,44.42
2022-09-14T13:19:32.815Z,44.87
2022-09-14T13:22:01.995Z,44.79
2022-09-14T13:24:37.552Z,44.93
2022-09-14T13:27:06.451Z,45.37
2022-09-14T13:29:33.415Z,46.48
2022-09-14T13:32:03.681Z,46.91
2022-09-14T13:34:35.200Z,47.47
2022-09-14T13:37:02.934Z,47.37
2022-09-14T13:39:40.860Z,47.22
2022-09-14T13:42:09.839Z,46.79
2022-09-14T13:44:46.059Z,46.32
2022-09-14T13:47:17.234Z,46.21
2022-09-14T13:49:46.037Z,46.68
2022-09-14T13:52:31.046Z,47.00
2022-09-14T13:55:14.729Z,47.27
2022-09-14T13:58:07.493Z,48.04
2022-09-14T14:01:00.480Z,48.29
2022-09-14T14:03:39.326Z,48.94
2022-09-14T14:06:32.227Z,49.31
2022-09-14T14:09:11.257Z,49.15
2022-09-14T14:11:53.842Z,49.01
2022-09-14T14:14:31.179Z,49.47
2022-09-14T14:17:21.724Z,49.96
2022-09-14T14:19:50.729Z,50.22
2022-09-14T14:22:33.456Z,50.53
2022-09-14T14:25:16.531Z,50.97
2022-09-14T14:27:46.785Z,51.06
2022-09-14T14:30:22.056Z,51.39
2022-09-14T14:32:56.768Z,51.49
2022-09-14T14:35:26.872Z,51.63
2022-09-14T14:37:54.907Z,51.91
2022-09-14T14:40:22.450Z,51.78
2022-09-14T14:42:51.598Z,51.84
2022-09-14T14:45:23.010Z,51.30
2022-09-14T14:47:53.116Z,51.09
2022-09-14T14:50:23.424Z,51.14
2022-09-14T14:52:51.971Z,51.41
2022-09-14T14:55:21.253Z,51.71
2022-09-14T14:57:49.543Z,51.86
2022-09-14T15:00:25.544Z,51.87
2022-09-14T15:02:52.860Z,52.03
2022-09-14T15:05:20.755Z,52.34
2022-09-14T15:07:50.053Z,52.67
2022-09-14T15:10:17.982Z,52.59
2022-09-14T15:12:45.544Z,52.94
2022-09-14T15:15:20.990Z,53.33
2022-09-14T15:17:47.832Z,53.42
2022-09-14T15:20:15.059Z,53.35
2022-09-14T15:22:42.639Z,53.63
2022-09-14T15:25:11.359Z,53.89
2022-09-14T15:27:38.669Z,53.94
2022-09-14T15:30:07.022Z,54.11
2022-09-14T15:32:33.992Z,54.38
2022-09-14T15:35:00.730Z,54.67
2022-09-14T15:37:27.563Z,54.79
2022-09-14T15:39:54.607Z,54.99
2022-09-14T15:42:21.546Z,55.53
2022-09-14T15:44:48.551Z,55.46
2022-09-14T15:47:16.367Z,55.51
2022-09-14T15:49:43.869Z,55.69
2022-09-14T15:52:12.563Z,55.76
2022-09-14T15:54:39.728Z,55.96
2022-09-14T15:57:10.593Z,56.21
2022-09-14T15:59:38.042Z,56.34
2022-09-14T16:02:04.999Z,56.47
2022-09-14T16:04:37.267Z,56.84
2022-09-14T16:07:10.612Z,56.92
2022-09-14T16:09:47.909Z,57.12
2022-09-14T16:12:23.058Z,57.41
2022-09-14T16:14:54.464Z,57.51
2022-09-14T16:17:23.813Z,57.78
2022-09-14T16:19:52.915Z,57.82
2022-09-14T16:22:20.518Z,58.04
2022-09-14T16:24:47.739Z,58.18
2022-09-14T16:27:14.694Z,58.39
2022-09-14T16:29:42.200Z,58.48
2022-09-14T16:32:09.285Z,58.74
2022-09-14T16:34:36.670Z,58.86
2022-09-14T16:37:04.542Z,58.85
2022-09-14T16:39:32.264Z,59.07
2022-09-14T16:42:00.199Z,59.15
2022-09-14T16:44:28.870Z,59.39
2022-09-14T16:46:57.949Z,59.56
2022-09-14T16:49:27.918Z,59.66
2022-09-14T16:51:56.440Z,59.87
2022-09-14T16:54:25.780Z,60.10
2022-09-14T16:56:57.342Z,60.11
2022-09-14T16:59:24.620Z,60.51
2022-09-14T17:01:55.034Z,60.60
2022-09-14T17:04:24.071Z,60.76
2022-09-14T17:06:52.490Z,60.94
2022-09-14T17:09:23.645Z,61.36
2022-09-14T17:11:50.691Z,61.47
2022-09-14T17:14:20.715Z,61.77
2022-09-14T17:16:48.039Z,61.89
2022-09-14T17:19:15.499Z,62.10
2022-09-14T17:21:44.247Z,62.39
2022-09-14T17:24:12.597Z,62.42
2022-09-14T17:26:39.431Z,62.67
2022-09-14T17:29:07.374Z,62.85
2022-09-14T17:31:40.425Z,63.02
2022-09-14T17:34:09.970Z,62.87
2022-09-14T17:36:41.505Z,62.91
2022-09-14T17:39:12.250Z,63.15
2022-09-14T17:41:40.946Z,63.35
2022-09-14T17:44:11.393Z,63.62
2022-09-14T17:46:45.976Z,63.60
2022-09-14T17:49:18.317Z,63.60
2022-09-14T17:51:45.532Z,63.88
2022-09-14T17:54:12.954Z,64.07
2022-09-14T17:56:40.131Z,64.31
2022-09-14T17:59:21.495Z,64.28
2022-09-14T18:01:50.210Z,64.36
2022-09-14T18:04:18.587Z,64.47
2022-09-14T18:06:47.925Z,64.75
2022-09-14T18:09:22.109Z,64.81
2022-09-14T18:11:50.892Z,64.97
2022-09-14T18:14:19.115Z,64.46
2022-09-14T18:16:46.833Z,64.57
2022-09-14T18:19:15.208Z,64.52
2022-09-14T18:21:43.286Z,64.74
2022-09-14T18:24:11.588Z,64.76
2022-09-14T18:26:39.137Z,64.77
2022-09-14T18:29:06.602Z,64.79
2022-09-14T18:31:33.590Z,64.91
2022-09-14T18:34:01.340Z,65.10
2022-09-14T18:36:30.037Z,65.04
2022-09-14T18:38:58.896Z,65.06
2022-09-14T18:41:29.398Z,65.10
2022-09-14T18:43:56.590Z,65.12
2022-09-14T18:46:27.840Z,65.06
2022-09-14T18:49:00.261Z,65.14
2022-09-14T18:51:29.280Z,65.40
2022-09-14T18:54:04.126Z,65.22
2022-09-14T18:56:34.867Z,65.38
2022-09-14T18:59:03.544Z,65.38
2022-09-14T19:01:31.213Z,65.55
2022-09-14T19:03:58.328Z,65.52
2022-09-14T19:06:25.038Z,65.68
2022-09-14T19:08:53.020Z,65.59
2022-09-14T19:11:25.194Z,65.69
2022-09-14T19:14:01.820Z,65.64
2022-09-14T19:16:30.472Z,65.84
2022-09-14T19:18:58.470Z,66.00
2022-09-14T19:21:27.564Z,66.15
2022-09-14T19:23:57.581Z,66.39
2022-09-14T19:26:24.413Z,66.42
2022-09-14T19:28:51.744Z,66.44
2022-09-14T19:31:21.287Z,66.64
2022-09-14T19:33:48.436Z,66.62
2022-09-14T19:36:17.910Z,66.84
2022-09-14T19:38:45.111Z,67.04
2022-09-14T19:41:12.441Z,67.01
2022-09-14T19:43:39.443Z,67.03
2022-09-14T19:46:08.473Z,67.03
2022-09-14T19:48:35.772Z,67.00
2022-09-14T19:51:05.672Z,67.28
2022-09-14T19:53:34.637Z,66.98
2022-09-14T19:56:05.590Z,66.90
2022-09-14T19:58:47.097Z,66.85
2022-09-14T20:01:16.113Z,66.86
2022-09-14T20:03:44.862Z,66.89
2022-09-14T20:06:19.447Z,66.87
2022-09-14T20:08:47.609Z,67.06
2022-09-14T20:11:19.987Z,67.35
2022-09-14T20:13:50.507Z,67.38
2022-09-14T20:16:23.877Z,67.54
2022-09-14T20:18:52.313Z,67.49
2022-09-14T20:21:22.878Z,67.30
2022-09-14T20:24:15.020Z,67.41
2022-09-14T20:26:42.962Z,67.36
2022-09-14T20:29:09.986Z,67.47
2022-09-14T20:31:36.985Z,67.44
2022-09-14T20:34:04.632Z,67.44
2022-09-14T20:36:31.571Z,67.32
2022-09-14T20:38:59.629Z,67.49
2022-09-14T20:41:30.656Z,67.50
2022-09-14T20:43:58.014Z,67.54
2022-09-14T20:46:38.703Z,67.54
2022-09-14T20:49:10.383Z,67.73
2022-09-14T20:51:38.173Z,67.79
2022-09-14T20:54:06.663Z,67.77
2022-09-14T20:56:35.203Z,67.65
2022-09-14T20:59:04.613Z,67.66
2022-09-14T21:01:34.074Z,67.66
2022-09-14T21:04:16.290Z,67.69
2022-09-14T21:06:46.646Z,67.78
2022-09-14T21:09:14.967Z,67.73
2022-09-14T21:11:42.610Z,67.82
2022-09-14T21:14:09.365Z,67.86
2022-09-14T21:16:42.936Z,67.78
2022-09-14T21:19:19.676Z,67.82
2022-09-14T21:21:48.247Z,68.06
2022-09-14T21:24:16.442Z,67.90
2022-09-14T21:26:44.599Z,68.33
2022-09-14T21:29:17.769Z,68.42
2022-09-14T21:31:44.837Z,68.55
2022-09-14T21:34:12.728Z,68.51
2022-09-14T21:36:42.672Z,68.29
2022-09-14T21:39:13.653Z,68.40
2022-09-14T21:41:42.648Z,68.53
2022-09-14T21:44:09.556Z,68.47
2022-09-14T21:46:36.500Z,68.58
2022-09-14T21:49:03.693Z,68.66
2022-09-14T21:51:33.862Z,68.57
2022-09-14T21:54:03.856Z,68.79
2022-09-14T21:56:33.234Z,68.99
2022-09-14T21:59:02.734Z,68.94
2022-09-14T22:01:30.492Z,68.83
2022-09-14T22:03:58.463Z,68.89
2022-09-14T22:06:28.110Z,69.03
2022-09-14T22:08:57.808Z,68.84
2022-09-14T22:11:27.403Z,68.91
2022-09-14T22:13:56.044Z,68.92
2022-09-14T22:16:23.997Z,68.87
2022-09-14T22:18:53.577Z,68.97
2022-09-14T22:21:21.778Z,68.95
2022-09-14T22:23:57.970Z,69.03
2022-09-14T22:26:26.368Z,69.17
2022-09-14T22:28:53.958Z,69.18
2022-09-14T22:31:22.964Z,69.06
2022-09-14T22:33:51.190Z,68.97
2022-09-14T22:36:18.037Z,69.17
2022-09-14T22:38:45.811Z,69.01
2022-09-14T22:41:18.420Z,69.13
2022-09-14T22:43:46.692Z,69.38
2022-09-14T22:46:14.936Z,69.45
2022-09-14T22:48:41.866Z,69.43
2022-09-14T22:51:13.266Z,69.48
2022-09-14T22:53:40.280Z,69.56
2022-09-14T22:56:29.369Z,69.55
2022-09-14T22:58:56.656Z,69.52
2022-09-14T23:01:36.008Z,69.38
2022-09-14T23:04:09.740Z,69.40
2022-09-14T23:06:39.670Z,69.61
2022-09-14T23:09:08.632Z,69.73
2022-09-14T23:11:35.870Z,69.79
2022-09-14T23:14:02.645Z,70.21
2022-09-14T23:16:31.007Z,70.06
2022-09-14T23:19:03.346Z,70.32
2022-09-14T23:21:31.597Z,70.23
2022-09-14T23:24:02.960Z,70.17
2022-09-14T23:26:31.346Z,70.25
2022-09-14T23:29:01.547Z,70.20
2022-09-14T23:31:30.195Z,70.32
2022-09-14T23:33:58.835Z,70.32
2022-09-14T23:36:26.244Z,70.55
2022-09-14T23:38:53.426Z,70.43
2022-09-14T23:41:22.407Z,70.66
2022-09-14T23:43:49.361Z,70.71
2022-09-14T23:46:16.698Z,70.69
2022-09-14T23:48:44.459Z,70.79
2022-09-14T23:51:12.390Z,70.98
2022-09-14T23:53:39.886Z,71.13
2022-09-14T23:56:07.254Z,71.22
2022-09-14T23:58:35.857Z,71.48
